createdAt,value
2022-08-22T00:08:00.342Z,4.28
2022-08-22T00:13:07.427Z,4.25
2022-08-22T00:18:17.778Z,4.25
2022-08-22T00:23:27.544Z,4.27
2022-08-22T00:28:36.012Z,4.27
2022-08-22T00:33:47.687Z,4.27
2022-08-22T00:38:56.811Z,4.27
2022-08-22T00:44:06.574Z,4.31
2022-08-22T00:49:14.410Z,4.31
2022-08-22T00:54:23.532Z,4.29
2022-08-22T00:59:31.390Z,4.29
2022-08-22T01:04:39.879Z,4.32
2022-08-22T01:09:49.607Z,4.32
2022-08-22T01:14:58.753Z,4.27
2022-08-22T01:20:06.597Z,4.27
2022-08-22T01:25:17.994Z,4.33
2022-08-22T01:30:25.468Z,4.33
2022-08-22T01:35:33.947Z,4.34
2022-08-22T01:40:54.564Z,4.34
2022-08-22T01:45:52.186Z,4.38
2022-08-22T01:51:01.286Z,4.38
2022-08-22T01:56:10.521Z,4.34
2022-08-22T02:01:19.288Z,4.34
2022-08-22T02:06:28.012Z,4.28
2022-08-22T02:11:37.137Z,4.28
2022-08-22T02:16:47.632Z,4.41
2022-08-22T02:21:56.654Z,4.41
2022-08-22T02:27:06.413Z,4.36
2022-08-22T02:32:14.893Z,4.36
2022-08-22T02:37:24.664Z,4.36
2022-08-22T02:42:41.415Z,4.36
2022-08-22T02:47:57.069Z,4.37
2022-08-22T02:53:13.094Z,4.37
2022-08-22T02:58:31.414Z,4.39
2022-08-22T03:03:43.499Z,4.45
2022-08-22T03:09:01.611Z,4.45
2022-08-22T03:14:17.363Z,4.41
2022-08-22T03:19:28.138Z,4.41
2022-08-22T03:24:44.328Z,4.45
2022-08-22T03:30:04.472Z,4.45
2022-08-22T03:35:14.705Z,4.44
2022-08-22T03:39:47.352Z,4.44
2022-08-22T03:44:23.869Z,4.48
2022-08-22T03:49:34.900Z,4.48
2022-08-22T03:54:43.385Z,4.51
2022-08-22T03:59:52.499Z,4.51
2022-08-22T04:05:01.002Z,4.39
2022-08-22T04:10:09.466Z,4.39
2022-08-22T04:15:19.207Z,4.39
2022-08-22T04:20:27.694Z,4.39
2022-08-22T04:25:38.109Z,4.4
2022-08-22T04:30:47.222Z,4.4
2022-08-22T04:35:56.984Z,4.39
2022-08-22T04:41:06.096Z,4.39
2022-08-22T04:46:14.567Z,4.32
2022-08-22T04:51:23.079Z,4.32
2022-08-22T04:56:32.821Z,4.35
2022-08-22T05:01:43.032Z,4.35
2022-08-22T05:06:51.692Z,4.36
2022-08-22T05:12:02.133Z,4.36
2022-08-22T05:17:17.219Z,4.4
2022-08-22T05:22:21.631Z,4.4
2022-08-22T05:27:30.731Z,4.4
2022-08-22T05:32:40.509Z,4.4
2022-08-22T05:37:50.354Z,4.4
2022-08-22T05:42:59.372Z,4.4
2022-08-22T05:48:08.486Z,4.38
2022-08-22T05:53:17.605Z,4.38
2022-08-22T05:58:27.388Z,4.46
2022-08-22T06:03:35.875Z,4.46
2022-08-22T06:08:44.409Z,4.49
2022-08-22T06:13:53.787Z,4.59
2022-08-22T06:19:03.225Z,4.59
2022-08-22T06:24:12.343Z,4.58
2022-08-22T06:29:22.100Z,4.58
2022-08-22T06:34:30.582Z,4.79
2022-08-22T06:39:39.322Z,4.79
2022-08-22T06:44:46.912Z,4.72
2022-08-22T06:50:01.730Z,4.72
2022-08-22T06:55:16.617Z,4.71
2022-08-22T07:00:32.810Z,4.71
2022-08-22T07:05:47.656Z,4.71
2022-08-22T07:11:04.457Z,4.71
2022-08-22T07:16:20.629Z,4.64
2022-08-22T07:21:36.080Z,4.64
2022-08-22T07:26:51.013Z,4.6
2022-08-22T07:32:05.900Z,4.6
2022-08-22T07:37:21.423Z,4.53
2022-08-22T07:42:37.591Z,4.53
2022-08-22T07:47:03.098Z,4.58
2022-08-22T07:52:19.257Z,4.58
2022-08-22T07:56:59.794Z,4.66
2022-08-22T08:02:08.158Z,4.66
2022-08-22T08:07:16.644Z,4.63
2022-08-22T08:12:25.784Z,4.63
2022-08-22T08:17:34.265Z,4.63
2022-08-22T08:22:44.025Z,4.63
2022-08-22T08:27:53.372Z,4.47
2022-08-22T08:33:27.073Z,4.47
2022-08-22T08:38:10.731Z,4.56
2022-08-22T08:43:20.558Z,4.56
2022-08-22T08:48:30.832Z,4.45
2022-08-22T08:53:46.399Z,4.45
2022-08-22T09:45:37.979Z,4.36
2022-08-22T09:50:18.200Z,4.36
2022-08-22T09:55:35.965Z,4.37
2022-08-22T10:00:36.696Z,4.37
2022-08-22T10:05:46.430Z,4.34
2022-08-22T10:10:54.791Z,4.34
2022-08-22T10:16:04.812Z,4.36
2022-08-22T10:21:12.493Z,4.36
2022-08-22T10:26:26.229Z,4.34
2022-08-22T10:31:32.644Z,4.34
2022-08-22T10:36:42.419Z,4.38
2022-08-22T10:41:51.640Z,4.38
2022-08-22T10:47:00.012Z,4.34
2022-08-22T10:52:16.509Z,4.34
2022-08-22T10:57:21.095Z,4.35
2022-08-22T11:02:29.315Z,4.35
2022-08-22T11:07:50.419Z,4.33
2022-08-22T11:10:38.887Z,4.33
2022-08-22T11:11:32.506Z,4.33
2022-08-22T11:15:55.658Z,4.33
2022-08-22T11:18:13.456Z,4.33
2022-08-22T11:23:21.137Z,4.39
2022-08-22T11:23:51.095Z,4.39
2022-08-22T11:28:41.151Z,4.35
2022-08-22T11:35:00.677Z,4.35
2022-08-22T11:46:06.816Z,4.38
2022-08-22T11:48:16.244Z,4.38
2022-08-22T11:52:51.579Z,4.38
2022-08-22T11:58:56.988Z,4.42
2022-08-22T11:59:25.479Z,4.42
2022-08-22T12:04:25.853Z,4.42
2022-08-22T12:05:26.977Z,4.42
2022-08-22T12:10:25.540Z,4.43
2022-08-22T12:10:55.426Z,4.43
2022-08-22T12:15:42.264Z,4.44
2022-08-22T12:16:12.231Z,4.44
2022-08-22T12:21:03.413Z,4.44
2022-08-22T12:21:53.928Z,4.44
2022-08-22T12:27:08.312Z,4.43
2022-08-22T12:28:18.227Z,4.43
2022-08-22T12:33:04.199Z,4.43
2022-08-22T12:34:24.138Z,4.43
2022-08-22T12:38:38.319Z,4.41
2022-08-22T12:39:08.088Z,4.41
2022-08-22T12:43:52.516Z,4.41
2022-08-22T12:50:42.061Z,4.44
2022-08-22T12:51:32.052Z,4.44
2022-08-22T12:55:56.961Z,4.44
2022-08-22T13:09:15.775Z,4.44
2022-08-22T13:09:45.015Z,4.44
2022-08-22T13:14:45.655Z,4.44
2022-08-22T13:15:19.365Z,4.44
2022-08-22T13:20:09.307Z,4.44
2022-08-22T13:20:39.102Z,4.44
2022-08-22T13:25:26.729Z,4.44
2022-08-22T13:31:19.016Z,4.47
2022-08-22T13:33:45.112Z,4.47
2022-08-22T13:38:46.766Z,4.48
2022-08-22T13:45:49.622Z,4.48
2022-08-22T13:48:35.333Z,4.48
2022-08-22T13:54:00.704Z,4.5
2022-08-22T13:55:00.344Z,4.5
2022-08-22T14:00:07.567Z,4.52
2022-08-22T14:00:36.629Z,4.52
2022-08-22T14:05:20.548Z,4.52
2022-08-22T14:11:23.693Z,4.48
2022-08-22T14:16:44.103Z,4.48
2022-08-22T14:21:52.812Z,4.53
2022-08-22T14:23:04.976Z,4.53
2022-08-22T14:28:09.945Z,4.5
2022-08-22T14:35:52.640Z,4.5
2022-08-22T14:36:42.488Z,4.5
2022-08-22T14:41:08.663Z,4.54
2022-08-22T14:48:37.572Z,4.5
2022-08-22T14:49:52.714Z,4.5
2022-08-22T14:54:51.180Z,4.5
2022-08-22T14:56:58.456Z,4.5
2022-08-22T15:02:10.180Z,4.48
2022-08-22T15:07:25.063Z,4.48
2022-08-22T15:12:40.459Z,4.48
2022-08-22T15:17:56.842Z,4.46
2022-08-22T15:18:51.500Z,4.46
2022-08-22T15:23:12.140Z,4.46
2022-08-22T15:24:37.117Z,4.46
2022-08-22T15:29:46.865Z,4.47
2022-08-22T15:30:21.121Z,4.47
2022-08-22T15:35:07.067Z,4.47
2022-08-22T15:35:38.892Z,4.47
2022-08-22T15:40:24.958Z,4.49
2022-08-22T15:40:52.568Z,4.49
2022-08-22T15:45:44.020Z,4.49
2022-08-22T15:48:37.172Z,4.49
2022-08-22T15:53:17.671Z,4.43
2022-08-22T15:59:57.568Z,4.48
2022-08-22T16:06:12.657Z,4.48
2022-08-22T16:06:42.655Z,4.48
2022-08-22T16:11:44.183Z,4.45
2022-08-22T16:12:14.149Z,4.45
2022-08-22T16:17:08.648Z,4.46
2022-08-22T16:23:19.850Z,4.46
2022-08-22T16:23:49.982Z,4.46
2022-08-22T16:28:59.604Z,4.45
2022-08-22T16:29:28.706Z,4.45
2022-08-22T16:34:13.926Z,4.45
2022-08-22T16:38:02.040Z,4.45
2022-08-22T16:43:10.266Z,4.44
2022-08-22T16:43:40.224Z,4.44
2022-08-22T16:48:34.739Z,4.42
2022-08-22T16:49:40.782Z,4.42
2022-08-22T16:54:40.812Z,4.42
2022-08-22T17:00:51.371Z,4.46
2022-08-22T17:13:38.691Z,4.43
2022-08-22T17:19:08.338Z,4.43
2022-08-22T17:24:34.549Z,4.43
2022-08-22T17:29:27.203Z,4.43
2022-08-22T17:34:43.509Z,4.43
2022-08-22T17:39:56.403Z,4.41
2022-08-22T17:45:11.163Z,4.41
2022-08-22T17:50:26.960Z,4.42
2022-08-22T17:55:41.559Z,4.42
2022-08-22T18:00:57.146Z,4.43
2022-08-22T18:06:13.287Z,4.43
2022-08-22T18:11:28.773Z,4.42
2022-08-22T18:16:44.305Z,4.42
2022-08-22T18:21:59.818Z,4.38
2022-08-22T18:27:29.611Z,4.38
2022-08-22T18:31:40.887Z,4.38
2022-08-22T18:36:24.500Z,4.38
2022-08-22T18:41:36.574Z,4.43
2022-08-22T18:46:42.743Z,4.43
2022-08-22T18:51:51.194Z,4.43
2022-08-22T18:57:00.329Z,4.43
2022-08-22T19:02:10.099Z,4.38
2022-08-22T19:07:19.233Z,4.38
2022-08-22T19:12:30.255Z,4.35
2022-08-22T19:17:40.901Z,4.35
2022-08-22T19:22:51.459Z,4.4
2022-08-22T19:27:58.894Z,4.36
2022-08-22T19:33:08.023Z,4.36
2022-08-22T19:38:17.126Z,4.39
2022-08-22T19:43:27.322Z,4.39
2022-08-22T19:48:36.657Z,4.41
2022-08-22T19:53:45.133Z,4.41
2022-08-22T19:58:52.971Z,4.36
2022-08-22T20:04:03.387Z,4.36
2022-08-22T20:09:11.875Z,4.38
2022-08-22T20:14:31.183Z,4.38
2022-08-22T20:19:30.757Z,4.38
2022-08-22T20:24:40.610Z,4.38
2022-08-22T20:29:48.333Z,4.4
2022-08-22T20:34:58.174Z,4.4
2022-08-22T20:41:00.679Z,4.36
2022-08-22T20:45:16.806Z,4.36
2022-08-22T20:50:27.897Z,4.42
2022-08-22T20:55:35.351Z,4.42
2022-08-22T21:00:43.886Z,4.4
2022-08-22T21:05:52.241Z,4.4
2022-08-22T21:11:00.033Z,4.38
2022-08-22T21:16:08.493Z,4.38
2022-08-22T21:21:18.280Z,4.37
2022-08-22T21:26:25.490Z,4.37
2022-08-22T21:31:33.980Z,4.41
2022-08-22T21:36:43.068Z,4.41
2022-08-22T21:41:53.491Z,4.39
2022-08-22T21:47:08.969Z,4.39
2022-08-22T21:52:24.459Z,4.38
2022-08-22T21:57:41.265Z,4.38
2022-08-22T22:02:57.427Z,4.42
2022-08-22T22:08:12.988Z,4.42
2022-08-22T22:13:28.542Z,4.41
2022-08-22T22:18:22.839Z,4.41
2022-08-22T22:23:02.712Z,4.39
2022-08-22T22:28:11.082Z,4.39
2022-08-22T22:33:19.561Z,4.39
2022-08-22T22:38:30.070Z,4.39
2022-08-22T22:43:39.743Z,4.37
2022-08-22T22:48:48.419Z,4.37
2022-08-22T22:53:57.950Z,4.39
2022-08-22T22:59:14.913Z,4.39
2022-08-22T23:04:17.469Z,4.39
2022-08-22T23:09:45.468Z,4.4
2022-08-22T23:14:35.703Z,4.4
2022-08-22T23:19:47.866Z,4.38
2022-08-22T23:24:53.306Z,4.38
2022-08-22T23:30:01.901Z,4.39
2022-08-22T23:35:12.167Z,4.39
2022-08-22T23:40:22.124Z,4.39
2022-08-22T23:45:31.705Z,4.39
2022-08-22T23:50:41.451Z,4.36
2022-08-22T23:55:49.953Z,4.36
